sensor_id;sensor_type;location;lat;lon;timestamp;pressure;altitude;pressure_sealevel;temperature;humidity
74790;BME280;63318;52.406;13.416;2023-04-24T00:01:11;99943.19;;;10.00;74.97
74790;BME280;63318;52.406;13.416;2023-04-24T00:03:39;99942.08;;;10.00;75.03
74790;BME280;63318;52.406;13.416;2023-04-24T00:06:08;99938.20;;;9.99;75.11
74790;BME280;63318;52.406;13.416;2023-04-24T00:08:36;99937.04;;;9.98;75.12
74790;BME280;63318;52.406;13.416;2023-04-24T00:11:05;99931.65;;;9.97;75.39
74790;BME280;63318;52.406;13.416;2023-04-24T00:13:33;99930.67;;;9.96;75.50
74790;BME280;63318;52.406;13.416;2023-04-24T00:16:02;99930.85;;;9.95;75.74
74790;BME280;63318;52.406;13.416;2023-04-24T00:18:30;99926.14;;;9.95;75.67
74790;BME280;63318;52.406;13.416;2023-04-24T00:20:58;99922.48;;;9.94;75.35
74790;BME280;63318;52.406;13.416;2023-04-24T00:23:26;99917.82;;;9.93;75.71
74790;BME280;63318;52.406;13.416;2023-04-24T00:25:54;99912.13;;;9.92;76.08
74790;BME280;63318;52.406;13.416;2023-04-24T00:28:23;99909.96;;;9.92;75.90
74790;BME280;63318;52.406;13.416;2023-04-24T00:30:51;99904.42;;;9.90;76.09
74790;BME280;63318;52.406;13.416;2023-04-24T00:33:19;99902.14;;;9.90;76.21
74790;BME280;63318;52.406;13.416;2023-04-24T00:35:47;99897.98;;;9.88;76.21
74790;BME280;63318;52.406;13.416;2023-04-24T00:38:15;99893.85;;;9.87;76.33
74790;BME280;63318;52.406;13.416;2023-04-24T00:40:44;99889.44;;;9.85;76.33
74790;BME280;63318;52.406;13.416;2023-04-24T00:43:12;99886.45;;;9.83;76.43
74790;BME280;63318;52.406;13.416;2023-04-24T00:45:41;99884.92;;;9.81;76.61
74790;BME280;63318;52.406;13.416;2023-04-24T00:48:09;99885.77;;;9.78;76.43
74790;BME280;63318;52.406;13.416;2023-04-24T00:50:39;99879.02;;;9.76;76.75
74790;BME280;63318;52.406;13.416;2023-04-24T00:53:07;99878.25;;;9.74;76.69
74790;BME280;63318;52.406;13.416;2023-04-24T00:55:36;99872.50;;;9.73;76.60
74790;BME280;63318;52.406;13.416;2023-04-24T00:58:04;99873.63;;;9.72;76.90
74790;BME280;63318;52.406;13.416;2023-04-24T01:00:33;99877.34;;;9.70;76.76
74790;BME280;63318;52.406;13.416;2023-04-24T01:03:02;99880.41;;;9.69;77.06
74790;BME280;63318;52.406;13.416;2023-04-24T01:05:33;99882.70;;;9.67;77.18
74790;BME280;63318;52.406;13.416;2023-04-24T01:08:02;99883.52;;;9.67;77.29
74790;BME280;63318;52.406;13.416;2023-04-24T01:10:32;99880.20;;;9.67;77.31
74790;BME280;63318;52.406;13.416;2023-04-24T01:13:01;99882.36;;;9.67;77.28
74790;BME280;63318;52.406;13.416;2023-04-24T01:15:29;99882.20;;;9.68;77.33
74790;BME280;63318;52.406;13.416;2023-04-24T01:17:57;99880.46;;;9.69;77.27
74790;BME280;63318;52.406;13.416;2023-04-24T01:20:26;99874.96;;;9.69;77.63
74790;BME280;63318;52.406;13.416;2023-04-24T01:22:55;99872.52;;;9.69;77.87
74790;BME280;63318;52.406;13.416;2023-04-24T01:25:24;99875.80;;;9.70;77.80
74790;BME280;63318;52.406;13.416;2023-04-24T01:27:54;99870.64;;;9.70;77.95
74790;BME280;63318;52.406;13.416;2023-04-24T01:30:22;99870.86;;;9.70;78.19
74790;BME280;63318;52.406;13.416;2023-04-24T01:32:51;99864.92;;;9.70;78.24
74790;BME280;63318;52.406;13.416;2023-04-24T01:35:19;99866.75;;;9.70;78.40
74790;BME280;63318;52.406;13.416;2023-04-24T01:37:48;99865.48;;;9.69;78.33
74790;BME280;63318;52.406;13.416;2023-04-24T01:40:16;99863.23;;;9.68;78.31
74790;BME280;63318;52.406;13.416;2023-04-24T01:42:45;99866.83;;;9.67;78.37
74790;BME280;63318;52.406;13.416;2023-04-24T01:45:13;99862.17;;;9.67;78.45
74790;BME280;63318;52.406;13.416;2023-04-24T01:47:41;99861.47;;;9.66;78.47
74790;BME280;63318;52.406;13.416;2023-04-24T01:50:10;99854.55;;;9.64;78.50
74790;BME280;63318;52.406;13.416;2023-04-24T01:52:39;99849.13;;;9.63;78.45
74790;BME280;63318;52.406;13.416;2023-04-24T01:55:09;99846.20;;;9.63;78.60
74790;BME280;63318;52.406;13.416;2023-04-24T01:57:37;99847.96;;;9.63;78.78
74790;BME280;63318;52.406;13.416;2023-04-24T02:00:08;99847.91;;;9.63;79.00
74790;BME280;63318;52.406;13.416;2023-04-24T02:02:36;99841.91;;;9.63;78.89
74790;BME280;63318;52.406;13.416;2023-04-24T02:05:08;99847.34;;;9.65;79.09
74790;BME280;63318;52.406;13.416;2023-04-24T02:07:36;99840.49;;;9.66;79.26
74790;BME280;63318;52.406;13.416;2023-04-24T02:10:05;99841.60;;;9.67;79.36
74790;BME280;63318;52.406;13.416;2023-04-24T02:12:34;99833.88;;;9.68;79.55
74790;BME280;63318;52.406;13.416;2023-04-24T02:15:02;99830.60;;;9.69;79.41
74790;BME280;63318;52.406;13.416;2023-04-24T02:17:31;99824.28;;;9.71;79.58
74790;BME280;63318;52.406;13.416;2023-04-24T02:19:59;99819.51;;;9.71;79.60
74790;BME280;63318;52.406;13.416;2023-04-24T02:22:27;99828.74;;;9.72;79.48
74790;BME280;63318;52.406;13.416;2023-04-24T02:24:55;99826.64;;;9.73;79.51
74790;BME280;63318;52.406;13.416;2023-04-24T02:27:23;99826.23;;;9.74;79.71
74790;BME280;63318;52.406;13.416;2023-04-24T02:29:52;99828.39;;;9.74;79.89
74790;BME280;63318;52.406;13.416;2023-04-24T02:32:20;99831.71;;;9.74;79.93
74790;BME280;63318;52.406;13.416;2023-04-24T02:34:48;99835.88;;;9.74;79.70
74790;BME280;63318;52.406;13.416;2023-04-24T02:37:16;99831.94;;;9.75;79.94
74790;BME280;63318;52.406;13.416;2023-04-24T02:39:45;99837.98;;;9.75;79.99
74790;BME280;63318;52.406;13.416;2023-04-24T02:42:13;99839.15;;;9.75;80.01
74790;BME280;63318;52.406;13.416;2023-04-24T02:44:41;99836.16;;;9.75;80.21
74790;BME280;63318;52.406;13.416;2023-04-24T02:47:09;99830.29;;;9.75;80.05
74790;BME280;63318;52.406;13.416;2023-04-24T02:49:37;99832.55;;;9.74;80.31
74790;BME280;63318;52.406;13.416;2023-04-24T02:52:06;99828.17;;;9.74;80.13
74790;BME280;63318;52.406;13.416;2023-04-24T02:54:34;99826.84;;;9.74;80.22
74790;BME280;63318;52.406;13.416;2023-04-24T02:57:02;99820.61;;;9.75;80.12
74790;BME280;63318;52.406;13.416;2023-04-24T03:01:58;99816.55;;;9.78;80.57
74790;BME280;63318;52.406;13.416;2023-04-24T03:04:27;99815.97;;;9.80;80.73
74790;BME280;63318;52.406;13.416;2023-04-24T03:06:55;99817.07;;;9.82;80.56
74790;BME280;63318;52.406;13.416;2023-04-24T03:09:23;99820.97;;;9.85;80.64
74790;BME280;63318;52.406;13.416;2023-04-24T03:11:51;99824.61;;;9.87;80.74
74790;BME280;63318;52.406;13.416;2023-04-24T03:14:20;99827.96;;;9.90;80.78
74790;BME280;63318;52.406;13.416;2023-04-24T03:16:48;99832.88;;;9.92;80.84
74790;BME280;63318;52.406;13.416;2023-04-24T03:19:16;99834.70;;;9.94;80.79
74790;BME280;63318;52.406;13.416;2023-04-24T03:21:45;99831.58;;;9.96;80.84
74790;BME280;63318;52.406;13.416;2023-04-24T03:24:13;99828.16;;;9.98;80.87
74790;BME280;63318;52.406;13.416;2023-04-24T03:26:41;99824.81;;;10.00;81.01
74790;BME280;63318;52.406;13.416;2023-04-24T03:29:10;99827.14;;;10.02;81.07
74790;BME280;63318;52.406;13.416;2023-04-24T03:31:38;99825.90;;;10.03;81.10
74790;BME280;63318;52.406;13.416;2023-04-24T03:34:06;99826.33;;;10.05;81.12
74790;BME280;63318;52.406;13.416;2023-04-24T03:36:35;99823.58;;;10.07;81.20
74790;BME280;63318;52.406;13.416;2023-04-24T03:39:04;99822.12;;;10.09;81.15
74790;BME280;63318;52.406;13.416;2023-04-24T03:41:32;99826.70;;;10.11;81.32
74790;BME280;63318;52.406;13.416;2023-04-24T03:44:00;99827.89;;;10.12;81.27
74790;BME280;63318;52.406;13.416;2023-04-24T03:46:29;99827.98;;;10.14;81.38
74790;BME280;63318;52.406;13.416;2023-04-24T03:48:57;99831.95;;;10.15;81.35
74790;BME280;63318;52.406;13.416;2023-04-24T03:51:25;99829.89;;;10.16;81.37
74790;BME280;63318;52.406;13.416;2023-04-24T03:53:53;99824.06;;;10.17;81.22
74790;BME280;63318;52.406;13.416;2023-04-24T03:56:21;99823.10;;;10.18;81.32
74790;BME280;63318;52.406;13.416;2023-04-24T03:58:50;99829.86;;;10.19;81.40
74790;BME280;63318;52.406;13.416;2023-04-24T04:01:18;99831.02;;;10.20;81.49
74790;BME280;63318;52.406;13.416;2023-04-24T04:03:47;99832.52;;;10.21;81.32
74790;BME280;63318;52.406;13.416;2023-04-24T04:06:15;99830.48;;;10.23;81.50
74790;BME280;63318;52.406;13.416;2023-04-24T04:08:43;99824.05;;;10.24;81.48
74790;BME280;63318;52.406;13.416;2023-04-24T04:11:12;99817.31;;;10.25;81.41
74790;BME280;63318;52.406;13.416;2023-04-24T04:13:40;99824.07;;;10.26;81.43
74790;BME280;63318;52.406;13.416;2023-04-24T04:16:09;99828.38;;;10.28;81.58
74790;BME280;63318;52.406;13.416;2023-04-24T04:18:38;99823.77;;;10.29;81.51
74790;BME280;63318;52.406;13.416;2023-04-24T04:21:06;99816.48;;;10.30;81.58
74790;BME280;63318;52.406;13.416;2023-04-24T04:23:34;99821.66;;;10.32;81.79
74790;BME280;63318;52.406;13.416;2023-04-24T04:26:03;99821.09;;;10.34;81.55
74790;BME280;63318;52.406;13.416;2023-04-24T04:28:31;99819.14;;;10.35;81.63
74790;BME280;63318;52.406;13.416;2023-04-24T04:30:59;99816.00;;;10.37;81.62
74790;BME280;63318;52.406;13.416;2023-04-24T04:33:28;99814.42;;;10.39;81.80
74790;BME280;63318;52.406;13.416;2023-04-24T04:35:56;99817.02;;;10.40;81.86
74790;BME280;63318;52.406;13.416;2023-04-24T04:38:25;99822.99;;;10.43;81.78
74790;BME280;63318;52.406;13.416;2023-04-24T04:40:54;99837.05;;;10.46;81.72
74790;BME280;63318;52.406;13.416;2023-04-24T04:43:22;99838.58;;;10.49;81.75
74790;BME280;63318;52.406;13.416;2023-04-24T04:45:51;99838.71;;;10.52;81.83
74790;BME280;63318;52.406;13.416;2023-04-24T04:48:19;99840.16;;;10.56;81.80
74790;BME280;63318;52.406;13.416;2023-04-24T04:50:48;99840.73;;;10.59;81.64
74790;BME280;63318;52.406;13.416;2023-04-24T04:53:17;99843.36;;;10.62;81.66
74790;BME280;63318;52.406;13.416;2023-04-24T04:55:45;99846.14;;;10.66;81.55
74790;BME280;63318;52.406;13.416;2023-04-24T04:58:15;99844.48;;;10.70;81.63
74790;BME280;63318;52.406;13.416;2023-04-24T05:00:43;99843.58;;;10.72;81.51
74790;BME280;63318;52.406;13.416;2023-04-24T05:03:11;99845.27;;;10.77;81.38
74790;BME280;63318;52.406;13.416;2023-04-24T05:05:40;99849.07;;;10.81;81.40
74790;BME280;63318;52.406;13.416;2023-04-24T05:08:08;99852.90;;;10.85;81.41
74790;BME280;63318;52.406;13.416;2023-04-24T05:10:36;99855.52;;;10.89;81.38
74790;BME280;63318;52.406;13.416;2023-04-24T05:13:04;99858.33;;;10.93;81.33
74790;BME280;63318;52.406;13.416;2023-04-24T05:15:33;99858.62;;;10.97;81.13
74790;BME280;63318;52.406;13.416;2023-04-24T05:18:01;99853.45;;;11.01;80.84
74790;BME280;63318;52.406;13.416;2023-04-24T05:20:29;99850.23;;;11.05;81.14
74790;BME280;63318;52.406;13.416;2023-04-24T05:22:57;99847.65;;;11.10;80.76
74790;BME280;63318;52.406;13.416;2023-04-24T05:25:26;99845.64;;;11.15;80.79
74790;BME280;63318;52.406;13.416;2023-04-24T05:27:54;99850.90;;;11.21;80.63
74790;BME280;63318;52.406;13.416;2023-04-24T05:30:22;99856.00;;;11.27;80.68
74790;BME280;63318;52.406;13.416;2023-04-24T05:32:50;99855.66;;;11.33;80.48
74790;BME280;63318;52.406;13.416;2023-04-24T05:35:19;99856.96;;;11.40;80.64
74790;BME280;63318;52.406;13.416;2023-04-24T05:37:47;99846.96;;;11.46;80.44
74790;BME280;63318;52.406;13.416;2023-04-24T05:40:15;99852.59;;;11.52;80.22
74790;BME280;63318;52.406;13.416;2023-04-24T05:42:43;99854.08;;;11.60;80.20
74790;BME280;63318;52.406;13.416;2023-04-24T05:45:12;99857.45;;;11.70;80.03
74790;BME280;63318;52.406;13.416;2023-04-24T05:47:40;99859.27;;;11.78;79.93
74790;BME280;63318;52.406;13.416;2023-04-24T05:50:09;99858.36;;;11.85;79.72
74790;BME280;63318;52.406;13.416;2023-04-24T05:52:38;99860.98;;;11.92;79.37
74790;BME280;63318;52.406;13.416;2023-04-24T05:55:07;99864.27;;;11.97;79.30
74790;BME280;63318;52.406;13.416;2023-04-24T05:57:36;99869.11;;;12.05;79.07
74790;BME280;63318;52.406;13.416;2023-04-24T06:00:06;99868.05;;;12.14;79.01
74790;BME280;63318;52.406;13.416;2023-04-24T06:02:34;99863.48;;;12.22;79.03
74790;BME280;63318;52.406;13.416;2023-04-24T06:05:04;99862.59;;;12.31;78.72
74790;BME280;63318;52.406;13.416;2023-04-24T06:07:32;99865.36;;;12.44;78.42
74790;BME280;63318;52.406;13.416;2023-04-24T06:10:01;99870.04;;;12.59;78.46
74790;BME280;63318;52.406;13.416;2023-04-24T06:12:29;99873.52;;;12.73;77.89
74790;BME280;63318;52.406;13.416;2023-04-24T06:14:58;99872.64;;;12.87;77.58
74790;BME280;63318;52.406;13.416;2023-04-24T06:17:26;99875.75;;;13.03;77.04
74790;BME280;63318;52.406;13.416;2023-04-24T06:19:54;99876.37;;;13.19;76.71
74790;BME280;63318;52.406;13.416;2023-04-24T06:22:22;99875.47;;;13.29;76.42
74790;BME280;63318;52.406;13.416;2023-04-24T06:24:51;99876.34;;;13.33;76.11
74790;BME280;63318;52.406;13.416;2023-04-24T06:27:19;99877.41;;;13.32;75.82
74790;BME280;63318;52.406;13.416;2023-04-24T06:29:47;99883.13;;;13.32;75.28
74790;BME280;63318;52.406;13.416;2023-04-24T06:32:15;99883.36;;;13.33;75.42
74790;BME280;63318;52.406;13.416;2023-04-24T06:34:44;99882.09;;;13.43;75.63
74790;BME280;63318;52.406;13.416;2023-04-24T06:37:12;99885.56;;;13.63;75.42
74790;BME280;63318;52.406;13.416;2023-04-24T06:39:40;99891.59;;;13.84;75.02
74790;BME280;63318;52.406;13.416;2023-04-24T06:42:08;99895.05;;;14.06;74.29
74790;BME280;63318;52.406;13.416;2023-04-24T06:44:37;99888.58;;;14.30;73.48
74790;BME280;63318;52.406;13.416;2023-04-24T06:47:05;99882.77;;;14.51;72.94
74790;BME280;63318;52.406;13.416;2023-04-24T06:49:34;99883.06;;;14.73;72.02
74790;BME280;63318;52.406;13.416;2023-04-24T06:52:03;99883.73;;;14.94;71.80
74790;BME280;63318;52.406;13.416;2023-04-24T06:54:32;99876.19;;;15.19;71.32
74790;BME280;63318;52.406;13.416;2023-04-24T06:57:00;99878.96;;;15.47;70.24
74790;BME280;63318;52.406;13.416;2023-04-24T06:59:29;99879.61;;;15.70;70.36
74790;BME280;63318;52.406;13.416;2023-04-24T07:01:58;99879.17;;;15.93;70.00
74790;BME280;63318;52.406;13.416;2023-04-24T07:04:26;99877.70;;;16.14;69.27
74790;BME280;63318;52.406;13.416;2023-04-24T07:06:54;99874.65;;;16.26;68.30
74790;BME280;63318;52.406;13.416;2023-04-24T07:09:23;99876.31;;;16.35;67.85
74790;BME280;63318;52.406;13.416;2023-04-24T07:11:52;99872.00;;;16.33;67.28
74790;BME280;63318;52.406;13.416;2023-04-24T07:14:21;99874.15;;;16.42;67.39
74790;BME280;63318;52.406;13.416;2023-04-24T07:16:50;99869.61;;;16.58;67.36
74790;BME280;63318;52.406;13.416;2023-04-24T07:19:18;99863.08;;;16.80;67.40
74790;BME280;63318;52.406;13.416;2023-04-24T07:21:47;99864.77;;;17.01;66.83
74790;BME280;63318;52.406;13.416;2023-04-24T07:24:15;99871.22;;;17.20;66.67
74790;BME280;63318;52.406;13.416;2023-04-24T07:26:44;99868.49;;;17.33;65.86
74790;BME280;63318;52.406;13.416;2023-04-24T07:29:12;99878.64;;;17.34;64.85
74790;BME280;63318;52.406;13.416;2023-04-24T07:31:41;99878.19;;;17.27;65.05
74790;BME280;63318;52.406;13.416;2023-04-24T07:34:10;99882.23;;;17.25;64.43
74790;BME280;63318;52.406;13.416;2023-04-24T07:36:38;99879.00;;;17.31;64.59
74790;BME280;63318;52.406;13.416;2023-04-24T07:39:07;99877.29;;;17.37;64.19
74790;BME280;63318;52.406;13.416;2023-04-24T07:41:35;99872.19;;;17.51;64.22
74790;BME280;63318;52.406;13.416;2023-04-24T07:44:04;99870.89;;;17.73;64.22
74790;BME280;63318;52.406;13.416;2023-04-24T07:46:32;99871.39;;;17.94;63.46
74790;BME280;63318;52.406;13.416;2023-04-24T07:49:01;99879.92;;;18.05;62.17
74790;BME280;63318;52.406;13.416;2023-04-24T07:51:29;99874.33;;;18.06;61.46
74790;BME280;63318;52.406;13.416;2023-04-24T07:53:58;99874.70;;;18.10;62.07
74790;BME280;63318;52.406;13.416;2023-04-24T07:56:26;99874.58;;;18.26;62.00
74790;BME280;63318;52.406;13.416;2023-04-24T07:58:54;99869.93;;;18.37;61.10
74790;BME280;63318;52.406;13.416;2023-04-24T08:01:23;99874.00;;;18.41;60.57
74790;BME280;63318;52.406;13.416;2023-04-24T08:03:51;99872.16;;;18.37;59.67
74790;BME280;63318;52.406;13.416;2023-04-24T08:06:20;99871.04;;;18.33;59.35
74790;BME280;63318;52.406;13.416;2023-04-24T08:08:48;99868.65;;;18.33;59.82
74790;BME280;63318;52.406;13.416;2023-04-24T08:11:17;99870.38;;;18.30;59.11
74790;BME280;63318;52.406;13.416;2023-04-24T08:13:45;99872.59;;;18.20;58.99
74790;BME280;63318;52.406;13.416;2023-04-24T08:16:13;99872.02;;;18.12;58.61
74790;BME280;63318;52.406;13.416;2023-04-24T08:18:43;99873.02;;;18.08;59.30
74790;BME280;63318;52.406;13.416;2023-04-24T08:21:12;99868.05;;;18.15;59.20
74790;BME280;63318;52.406;13.416;2023-04-24T08:23:40;99865.32;;;18.37;59.29
74790;BME280;63318;52.406;13.416;2023-04-24T08:26:09;99864.23;;;18.68;58.48
74790;BME280;63318;52.406;13.416;2023-04-24T08:28:37;99862.15;;;18.86;57.43
74790;BME280;63318;52.406;13.416;2023-04-24T08:31:05;99862.16;;;18.97;57.24
74790;BME280;63318;52.406;13.416;2023-04-24T08:33:35;99863.15;;;19.15;57.26
74790;BME280;63318;52.406;13.416;2023-04-24T08:36:04;99862.77;;;19.28;56.58
74790;BME280;63318;52.406;13.416;2023-04-24T08:38:33;99863.08;;;19.30;56.02
74790;BME280;63318;52.406;13.416;2023-04-24T08:41:02;99861.88;;;19.26;55.93
74790;BME280;63318;52.406;13.416;2023-04-24T08:43:33;99861.21;;;19.34;56.01
74790;BME280;63318;52.406;13.416;2023-04-24T08:46:03;99863.71;;;19.60;55.73
74790;BME280;63318;52.406;13.416;2023-04-24T08:48:33;99867.40;;;19.70;54.93
74790;BME280;63318;52.406;13.416;2023-04-24T08:51:01;99866.66;;;19.72;55.06
74790;BME280;63318;52.406;13.416;2023-04-24T08:53:31;99870.51;;;19.84;55.06
74790;BME280;63318;52.406;13.416;2023-04-24T08:56:02;99865.89;;;19.89;54.92
74790;BME280;63318;52.406;13.416;2023-04-24T08:58:31;99871.36;;;19.83;54.20
74790;BME280;63318;52.406;13.416;2023-04-24T09:00:59;99873.66;;;19.80;54.71
74790;BME280;63318;52.406;13.416;2023-04-24T09:03:28;99871.22;;;19.81;54.36
74790;BME280;63318;52.406;13.416;2023-04-24T09:05:58;99872.04;;;19.87;55.07
74790;BME280;63318;52.406;13.416;2023-04-24T09:08:27;99873.85;;;19.91;54.46
74790;BME280;63318;52.406;13.416;2023-04-24T09:10:56;99870.80;;;19.83;53.95
74790;BME280;63318;52.406;13.416;2023-04-24T09:13:24;99870.45;;;19.72;54.28
74790;BME280;63318;52.406;13.416;2023-04-24T09:15:53;99871.89;;;19.59;54.01
74790;BME280;63318;52.406;13.416;2023-04-24T09:18:21;99876.13;;;19.40;54.13
74790;BME280;63318;52.406;13.416;2023-04-24T09:21:09;99877.73;;;19.18;53.68
74790;BME280;63318;52.406;13.416;2023-04-24T09:23:39;99871.02;;;18.93;53.93
74790;BME280;63318;52.406;13.416;2023-04-24T09:26:11;99877.41;;;18.83;54.82
74790;BME280;63318;52.406;13.416;2023-04-24T09:28:40;99879.77;;;18.71;54.68
74790;BME280;63318;52.406;13.416;2023-04-24T09:31:11;99881.59;;;18.59;55.10
74790;BME280;63318;52.406;13.416;2023-04-24T09:33:39;99884.89;;;18.50;55.12
74790;BME280;63318;52.406;13.416;2023-04-24T09:36:08;99888.59;;;18.48;55.09
74790;BME280;63318;52.406;13.416;2023-04-24T09:38:37;99885.25;;;18.47;54.76
74790;BME280;63318;52.406;13.416;2023-04-24T09:41:08;99888.27;;;18.44;54.36
74790;BME280;63318;52.406;13.416;2023-04-24T09:43:36;99887.03;;;18.37;54.19
74790;BME280;63318;52.406;13.416;2023-04-24T09:46:07;99889.36;;;18.35;54.65
74790;BME280;63318;52.406;13.416;2023-04-24T09:48:37;99885.15;;;18.38;54.02
74790;BME280;63318;52.406;13.416;2023-04-24T09:51:06;99881.83;;;18.38;54.34
74790;BME280;63318;52.406;13.416;2023-04-24T09:53:34;99880.39;;;18.38;54.16
74790;BME280;63318;52.406;13.416;2023-04-24T09:56:09;99880.85;;;18.38;54.44
74790;BME280;63318;52.406;13.416;2023-04-24T09:58:38;99882.46;;;18.38;54.16
74790;BME280;63318;52.406;13.416;2023-04-24T10:01:07;99885.20;;;18.40;53.95
74790;BME280;63318;52.406;13.416;2023-04-24T10:03:35;99879.91;;;18.44;53.83
74790;BME280;63318;52.406;13.416;2023-04-24T10:06:05;99876.16;;;18.56;54.13
74790;BME280;63318;52.406;13.416;2023-04-24T10:08:36;99870.25;;;18.78;53.83
74790;BME280;63318;52.406;13.416;2023-04-24T10:11:04;99873.55;;;18.97;53.47
74790;BME280;63318;52.406;13.416;2023-04-24T10:13:34;99875.20;;;19.08;52.84
74790;BME280;63318;52.406;13.416;2023-04-24T10:16:04;99872.84;;;19.14;53.59
74790;BME280;63318;52.406;13.416;2023-04-24T10:18:33;99881.23;;;19.27;52.31
74790;BME280;63318;52.406;13.416;2023-04-24T10:21:02;99876.30;;;19.31;52.38
74790;BME280;63318;52.406;13.416;2023-04-24T10:23:31;99873.73;;;19.34;51.76
74790;BME280;63318;52.406;13.416;2023-04-24T10:26:01;99867.29;;;19.48;52.36
74790;BME280;63318;52.406;13.416;2023-04-24T10:28:30;99872.04;;;19.64;52.07
74790;BME280;63318;52.406;13.416;2023-04-24T10:31:00;99869.80;;;19.80;52.22
74790;BME280;63318;52.406;13.416;2023-04-24T10:33:30;99869.66;;;19.88;51.85
74790;BME280;63318;52.406;13.416;2023-04-24T10:35:59;99871.27;;;19.88;51.67
74790;BME280;63318;52.406;13.416;2023-04-24T10:38:30;99871.35;;;19.86;51.62
74790;BME280;63318;52.406;13.416;2023-04-24T10:41:08;99872.11;;;19.79;51.50
74790;BME280;63318;52.406;13.416;2023-04-24T10:43:36;99871.23;;;19.74;51.60
74790;BME280;63318;52.406;13.416;2023-04-24T10:46:07;99870.75;;;19.66;51.69
74790;BME280;63318;52.406;13.416;2023-04-24T10:48:37;99873.27;;;19.62;51.88
74790;BME280;63318;52.406;13.416;2023-04-24T10:51:12;99872.30;;;19.54;51.76
74790;BME280;63318;52.406;13.416;2023-04-24T10:53:41;99870.44;;;19.46;51.85
74790;BME280;63318;52.406;13.416;2023-04-24T10:56:10;99864.05;;;19.33;51.90
74790;BME280;63318;52.406;13.416;2023-04-24T10:58:40;99851.73;;;19.25;51.87
74790;BME280;63318;52.406;13.416;2023-04-24T11:01:11;99853.36;;;19.31;52.06
74790;BME280;63318;52.406;13.416;2023-04-24T11:03:56;99852.92;;;19.52;52.10
74790;BME280;63318;52.406;13.416;2023-04-24T11:06:31;99853.98;;;19.75;52.28
74790;BME280;63318;52.406;13.416;2023-04-24T11:09:04;99854.02;;;19.98;51.23
74790;BME280;63318;52.406;13.416;2023-04-24T11:11:33;99852.58;;;20.07;51.08
74790;BME280;63318;52.406;13.416;2023-04-24T11:14:07;99861.05;;;20.07;50.67
74790;BME280;63318;52.406;13.416;2023-04-24T11:16:37;99862.66;;;19.94;50.35
74790;BME280;63318;52.406;13.416;2023-04-24T11:19:08;99866.05;;;19.81;49.84
74790;BME280;63318;52.406;13.416;2023-04-24T11:21:44;99870.09;;;19.70;50.52
74790;BME280;63318;52.406;13.416;2023-04-24T11:24:48;99885.67;;;19.59;50.84
74790;BME280;63318;52.406;13.416;2023-04-24T11:27:19;99906.04;;;19.27;52.40
74790;BME280;63318;52.406;13.416;2023-04-24T11:29:49;99908.92;;;18.89;54.20
74790;BME280;63318;52.406;13.416;2023-04-24T11:32:28;99903.13;;;18.44;55.40
74790;BME280;63318;52.406;13.416;2023-04-24T11:34:57;99900.23;;;18.06;56.06
74790;BME280;63318;52.406;13.416;2023-04-24T11:37:28;99892.04;;;17.80;57.84
74790;BME280;63318;52.406;13.416;2023-04-24T11:39:58;99887.79;;;17.72;59.60
74790;BME280;63318;52.406;13.416;2023-04-24T11:42:27;99885.11;;;17.75;59.18
74790;BME280;63318;52.406;13.416;2023-04-24T11:44:56;99880.91;;;17.83;60.51
74790;BME280;63318;52.406;13.416;2023-04-24T11:47:31;99877.44;;;17.97;60.18
74790;BME280;63318;52.406;13.416;2023-04-24T11:50:01;99874.59;;;18.09;59.85
74790;BME280;63318;52.406;13.416;2023-04-24T11:52:30;99872.05;;;18.16;60.31
74790;BME280;63318;52.406;13.416;2023-04-24T11:54:58;99877.05;;;18.24;60.82
74790;BME280;63318;52.406;13.416;2023-04-24T11:57:27;99876.00;;;18.30;60.43
74790;BME280;63318;52.406;13.416;2023-04-24T11:59:56;99874.41;;;18.41;60.89
74790;BME280;63318;52.406;13.416;2023-04-24T12:02:25;99872.50;;;18.59;61.20
74790;BME280;63318;52.406;13.416;2023-04-24T12:04:55;99875.98;;;18.69;59.87
74790;BME280;63318;52.406;13.416;2023-04-24T12:07:24;99867.54;;;18.83;59.98
74790;BME280;63318;52.406;13.416;2023-04-24T12:09:58;99869.27;;;19.04;59.41
74790;BME280;63318;52.406;13.416;2023-04-24T12:12:27;99866.86;;;19.21;58.35
74790;BME280;63318;52.406;13.416;2023-04-24T12:14:57;99866.75;;;19.36;58.18
74790;BME280;63318;52.406;13.416;2023-04-24T12:17:30;99863.71;;;19.57;57.87
74790;BME280;63318;52.406;13.416;2023-04-24T12:20:03;99866.83;;;19.64;56.99
74790;BME280;63318;52.406;13.416;2023-04-24T12:22:46;99857.41;;;19.62;56.23
74790;BME280;63318;52.406;13.416;2023-04-24T12:25:17;99859.77;;;19.60;55.24
74790;BME280;63318;52.406;13.416;2023-04-24T12:27:52;99851.11;;;19.58;54.54
74790;BME280;63318;52.406;13.416;2023-04-24T12:30:21;99851.79;;;19.54;54.26
74790;BME280;63318;52.406;13.416;2023-04-24T12:32:50;99849.16;;;19.50;53.77
74790;BME280;63318;52.406;13.416;2023-04-24T12:35:22;99850.14;;;19.45;51.43
74790;BME280;63318;52.406;13.416;2023-04-24T12:37:49;99852.00;;;19.29;49.77
74790;BME280;63318;52.406;13.416;2023-04-24T12:40:18;99850.46;;;19.16;50.35
74790;BME280;63318;52.406;13.416;2023-04-24T12:42:49;99852.23;;;19.11;49.89
74790;BME280;63318;52.406;13.416;2023-04-24T12:45:18;99848.96;;;19.07;49.02
74790;BME280;63318;52.406;13.416;2023-04-24T12:47:48;99851.85;;;19.02;48.62
74790;BME280;63318;52.406;13.416;2023-04-24T12:50:16;99845.04;;;19.01;47.41
74790;BME280;63318;52.406;13.416;2023-04-24T12:52:46;99842.69;;;19.00;47.58
74790;BME280;63318;52.406;13.416;2023-04-24T12:55:14;99843.79;;;19.08;47.41
74790;BME280;63318;52.406;13.416;2023-04-24T12:57:42;99847.98;;;19.19;46.55
74790;BME280;63318;52.406;13.416;2023-04-24T13:00:12;99841.27;;;19.30;45.43
74790;BME280;63318;52.406;13.416;2023-04-24T13:02:40;99839.65;;;19.42;44.28
74790;BME280;63318;52.406;13.416;2023-04-24T13:05:10;99845.05;;;19.48;44.99